EET,Max TemperatureF,Mean TemperatureF,Min TemperatureF,Max Dew PointF,MeanDew PointF,Min DewpointF,Max Humidity, Mean Humidity, Min Humidity, Max Sea Level PressureIn, Mean Sea Level PressureIn, Min Sea Level PressureIn, Max VisibilityMiles, Mean VisibilityMiles, Min VisibilityMiles, Max Wind SpeedMPH, Mean Wind SpeedMPH, Max Gust SpeedMPH,PrecipitationIn, CloudCover, Events, WindDirDegrees
2012-10-1,86,72,57,72,61,50,88,67,29,30.06,30.04,30.04,,,,9,3,,0.00,,,199
2012-10-2,84,72,60,70,64,57,94,71,45,30.06,30.03,30.01,6,6,6,12,2,,0.00,2,,194
2012-10-3,86,73,60,66,60,55,94,62,37,30.04,29.98,29.95,6,6,6,14,5,,0.00,2,,9
2012-10-4,86,74,62,64,60,54,88,60,35,29.98,29.93,29.89,6,6,6,13,5,,0.00,1,,2
2012-10-5,82,72,62,64,59,55,83,59,39,30.06,29.99,29.95,6,6,6,10,5,,0.00,2,,161
2012-10-6,84,72,59,61,55,48,88,52,29,30.09,30.06,30.04,6,6,6,9,3,,0.00,2,,107
2012-10-7,84,70,57,63,58,52,88,60,37,30.04,29.99,29.92,6,6,6,9,3,,0.00,1,,22
2012-10-8,80,70,60,66,61,57,88,71,45,29.95,29.88,29.83,6,6,6,7,4,,0.00,2,,335
2012-10-9,80,68,57,66,60,54,94,74,47,29.89,29.85,29.83,6,6,6,10,3,,0.00,3,Rain-Thunderstorm,173
2012-10-10,78,66,55,64,58,48,94,72,38,29.83,29.80,29.77,6,6,6,7,3,,0.00,3,,225
2012-10-11,78,68,59,64,61,57,94,72,54,29.89,29.84,29.80,6,6,6,8,3,,0.00,2,,186
2012-10-12,77,68,59,66,63,57,94,78,61,30.01,30.00,29.95,6,6,6,9,2,,0.00,3,,220
2012-10-13,78,69,60,66,62,59,94,84,54,30.09,30.01,29.95,6,6,2,7,1,,0.00,4,Rain-Thunderstorm,352
2012-10-14,78,69,60,68,62,41,94,79,48,30.04,29.96,29.89,6,6,3,13,3,,0.00,4,Rain-Thunderstorm,240
2012-10-15,80,70,59,72,66,57,94,81,65,30.01,29.96,29.92,6,6,6,13,4,,0.00,3,,183
2012-10-16,84,74,64,70,67,63,100,77,54,30.12,30.06,30.01,6,6,5,8,2,,0.00,3,,192
2012-10-17,89,76,64,68,62,57,94,64,33,30.12,30.09,30.06,6,6,6,13,3,,0.00,3,,348
2012-10-18,84,72,60,66,60,52,94,66,33,30.12,30.08,30.06,6,6,6,7,3,,0.00,1,,232
2012-10-19,82,71,60,66,58,52,88,63,35,30.09,30.07,30.04,6,6,6,9,4,,0.00,1,,241
2012-10-20,78,68,57,64,58,50,94,67,39,30.06,30.03,29.98,6,6,6,9,2,,0.00,1,,134
2012-10-21,78,66,55,63,59,54,94,71,50,30.01,29.98,29.92,6,6,5,13,3,,0.00,2,Rain,293
2012-10-22,77,64,51,57,52,45,88,60,32,30.01,29.96,29.92,6,6,6,10,4,,0.00,3,,186
2012-10-23,77,66,55,61,55,52,94,71,44,29.98,29.96,29.92,6,6,4,9,3,,0.00,3,Rain,220
2012-10-24,75,64,53,59,54,52,94,66,44,29.98,29.94,29.92,6,6,6,8,4,,0.00,3,,294
2012-10-25,75,63,51,59,54,48,94,70,41,29.95,29.92,29.89,6,6,6,6,2,,0.00,2,,278
2012-10-26,77,65,53,61,56,52,94,72,47,29.92,29.89,29.86,6,6,6,9,2,,0.00,3,,169
2012-10-27,77,65,53,66,60,52,100,77,61,29.89,29.84,29.80,6,6,6,15,4,,0.00,5,,166
2012-10-28,78,76,73,66,65,63,78,69,61,29.83,29.80,29.77,6,6,6,14,12,28,0.00,6,Rain,171
2012-10-29,78,70,57,70,62,54,88,69,53,29.86,29.74,29.68,6,6,2,20,9,28,0.00,3,Thunderstorm,1
2012-10-30,71,63,55,54,48,43,94,59,38,29.95,29.89,29.83,6,6,6,12,5,,0.00,1,,353
2012-10-31,75,62,48,55,48,41,87,59,31,29.95,29.93,29.89,6,6,5,7,3,,0.00,2,,204